createdAt,value
2019-02-23T00:00:47.072Z,3.20
2019-02-23T00:03:17.513Z,3.20
2019-02-23T00:05:46.883Z,3.10
2019-02-23T00:08:16.158Z,3.10
2019-02-23T00:10:45.427Z,3.00
2019-02-23T00:13:15.007Z,3.00
2019-02-23T00:15:44.279Z,3.00
2019-02-23T00:18:13.817Z,2.90
2019-02-23T00:20:44.446Z,2.90
2019-02-23T00:23:13.775Z,2.80
2019-02-23T00:25:43.052Z,2.70
2019-02-23T00:28:12.668Z,2.60
2019-02-23T00:30:41.944Z,2.60
2019-02-23T00:33:11.240Z,2.50
2019-02-23T00:35:40.520Z,2.40
2019-02-23T00:38:09.802Z,2.40
2019-02-23T00:40:39.391Z,2.40
2019-02-23T00:43:08.672Z,2.40
2019-02-23T00:45:37.971Z,2.40
2019-02-23T00:48:07.508Z,2.30
2019-02-23T00:50:37.120Z,2.30
2019-02-23T00:53:06.424Z,2.10
2019-02-23T00:55:36.036Z,2.10
2019-02-23T00:58:06.603Z,2.00
2019-02-23T01:00:35.884Z,2.00
2019-02-23T01:03:05.484Z,2.00
2019-02-23T01:05:34.755Z,1.90
2019-02-23T01:08:04.040Z,1.80
2019-02-23T01:10:33.601Z,1.70
2019-02-23T01:13:02.870Z,1.60
2019-02-23T01:15:32.139Z,1.60
2019-02-23T01:18:01.715Z,1.50
2019-02-23T01:20:30.996Z,1.50
2019-02-23T01:23:00.287Z,1.40
2019-02-23T01:25:29.935Z,1.40
2019-02-23T01:27:59.221Z,1.30
2019-02-23T01:30:28.748Z,1.20
2019-02-23T01:32:58.360Z,1.20
2019-02-23T01:35:28.485Z,1.10
2019-02-23T01:37:57.764Z,1.00
2019-02-23T01:40:27.171Z,1.00
2019-02-23T01:42:56.489Z,0.90
2019-02-23T01:45:25.831Z,0.90
2019-02-23T01:47:55.131Z,0.90
2019-02-23T01:50:24.727Z,0.90
2019-02-23T01:52:54.013Z,0.90
2019-02-23T01:55:23.619Z,0.80
2019-02-23T01:57:52.923Z,0.80
2019-02-23T02:00:23.704Z,0.80
2019-02-23T02:02:52.995Z,0.80
2019-02-23T02:05:22.445Z,0.80
2019-02-23T02:07:52.307Z,0.70
2019-02-23T02:10:21.660Z,0.70
2019-02-23T02:12:52.751Z,0.70
2019-02-23T02:15:22.031Z,0.70
2019-02-23T02:17:51.315Z,0.70
2019-02-23T02:20:20.868Z,0.70
2019-02-23T02:22:50.486Z,0.70
2019-02-23T02:25:19.851Z,0.60
2019-02-23T02:27:49.393Z,0.70
2019-02-23T02:30:19.008Z,0.60
2019-02-23T02:32:48.617Z,0.50
2019-02-23T02:35:19.255Z,0.40
2019-02-23T02:37:48.562Z,0.40
2019-02-23T02:40:17.850Z,0.50
2019-02-23T02:42:47.139Z,0.50
2019-02-23T02:45:17.186Z,0.40
2019-02-23T02:47:46.807Z,0.40
2019-02-23T02:50:24.151Z,0.30
2019-02-23T02:52:47.552Z,0.30
2019-02-23T02:55:16.870Z,0.30
2019-02-23T02:57:46.468Z,0.20
2019-02-23T03:00:16.076Z,0.10
2019-02-23T03:02:46.159Z,0.00
2019-02-23T03:05:15.440Z,-0.10
2019-02-23T03:07:44.723Z,-0.20
2019-02-23T03:10:14.022Z,-0.20
2019-02-23T03:12:43.308Z,-0.10
2019-02-23T03:15:12.626Z,-0.10
2019-02-23T03:17:41.911Z,-0.10
2019-02-23T03:20:11.203Z,-0.10
2019-02-23T03:22:40.736Z,-0.20
2019-02-23T03:25:10.355Z,-0.20
2019-02-23T03:27:40.677Z,-0.20
2019-02-23T03:30:11.429Z,-0.20
2019-02-23T03:32:40.768Z,-0.20
2019-02-23T03:35:10.058Z,-0.20
2019-02-23T03:37:39.349Z,-0.30
2019-02-23T03:40:09.186Z,-0.30
2019-02-23T03:42:38.752Z,-0.40
2019-02-23T03:45:08.567Z,-0.40
2019-02-23T03:47:38.184Z,-0.40
2019-02-23T03:50:08.138Z,-0.40
2019-02-23T03:52:37.452Z,-0.40
2019-02-23T03:55:07.121Z,-0.40
2019-02-23T03:57:36.408Z,-0.30
2019-02-23T04:00:09.059Z,-0.30
2019-02-23T04:02:39.401Z,-0.30
2019-02-23T04:05:09.588Z,-0.30
2019-02-23T04:07:38.872Z,-0.30
2019-02-23T04:10:09.082Z,-0.30
2019-02-23T04:12:38.363Z,-0.30
2019-02-23T04:15:08.036Z,-0.30
2019-02-23T04:17:37.324Z,-0.30
2019-02-23T04:20:08.488Z,-0.30
2019-02-23T04:22:37.776Z,-0.40
2019-02-23T04:25:08.497Z,-0.30
2019-02-23T04:27:37.817Z,-0.30
2019-02-23T04:30:08.734Z,-0.40
2019-02-23T04:32:38.019Z,-0.40
2019-02-23T04:35:07.379Z,-0.50
2019-02-23T04:37:36.947Z,-0.50
2019-02-23T04:40:07.896Z,-0.50
2019-02-23T04:42:37.188Z,-0.50
2019-02-23T04:45:07.515Z,-0.50
2019-02-23T04:47:36.814Z,-0.50
2019-02-23T04:50:09.244Z,-0.60
2019-02-23T04:52:38.813Z,-0.50
2019-02-23T04:55:09.044Z,-0.60
2019-02-23T04:57:38.332Z,-0.50
2019-02-23T05:00:10.691Z,-0.40
2019-02-23T05:02:40.075Z,-0.40
2019-02-23T05:05:09.956Z,-0.40
2019-02-23T05:07:40.100Z,-0.40
2019-02-23T05:10:09.792Z,-0.40
2019-02-23T05:12:39.086Z,-0.40
2019-02-23T05:15:10.392Z,-0.30
2019-02-23T05:17:39.680Z,-0.40
2019-02-23T05:20:08.971Z,-0.40
2019-02-23T05:22:38.266Z,-0.40
2019-02-23T05:25:07.544Z,-0.50
2019-02-23T05:27:37.159Z,-0.50
2019-02-23T05:30:09.595Z,-0.60
2019-02-23T05:32:40.064Z,-0.60
2019-02-23T05:35:11.830Z,-0.60
2019-02-23T05:37:42.152Z,-0.70
2019-02-23T05:40:14.302Z,-0.70
2019-02-23T05:42:43.596Z,-0.70
2019-02-23T05:45:12.951Z,-0.80
2019-02-23T05:47:55.053Z,-0.80
2019-02-23T05:50:24.340Z,-0.80
2019-02-23T05:52:53.664Z,-0.70
2019-02-23T05:55:22.952Z,-0.80
2019-02-23T05:57:52.248Z,-0.70
2019-02-23T06:00:21.551Z,-0.70
2019-02-23T06:02:50.837Z,-0.70
2019-02-23T06:05:20.119Z,-0.70
2019-02-23T06:07:51.205Z,-0.70
2019-02-23T06:10:20.496Z,-0.70
2019-02-23T06:12:49.788Z,-0.70
2019-02-23T06:15:19.073Z,-0.70
2019-02-23T06:17:48.619Z,-0.70
2019-02-23T06:20:18.231Z,-0.70
2019-02-23T06:22:47.836Z,-0.70
2019-02-23T06:25:18.582Z,-0.80
2019-02-23T06:27:47.868Z,-0.70
2019-02-23T06:30:18.408Z,-0.70
2019-02-23T06:32:48.223Z,-0.70
2019-02-23T06:35:17.520Z,-0.70
2019-02-23T06:37:46.804Z,-0.60
2019-02-23T06:40:16.444Z,-0.60
2019-02-23T06:42:46.056Z,-0.70
2019-02-23T06:45:15.345Z,-0.70
2019-02-23T06:47:45.520Z,-0.70
2019-02-23T06:50:14.799Z,-0.70
2019-02-23T06:52:44.177Z,-0.70
2019-02-23T06:55:13.805Z,-0.70
2019-02-23T06:57:43.088Z,-0.60
2019-02-23T07:00:16.131Z,-0.50
2019-02-23T07:02:45.712Z,-0.40
2019-02-23T07:05:15.322Z,-0.30
2019-02-23T07:07:44.612Z,-0.30
2019-02-23T07:10:15.055Z,-0.20
2019-02-23T07:12:44.367Z,-0.20
2019-02-23T07:15:14.790Z,-0.20
2019-02-23T07:17:44.077Z,0.00
2019-02-23T07:20:13.708Z,0.10
2019-02-23T07:22:43.312Z,0.20
2019-02-23T07:25:13.467Z,0.30
2019-02-23T07:27:43.051Z,0.40
2019-02-23T07:30:14.165Z,0.40
2019-02-23T07:32:43.446Z,0.50
2019-02-23T07:35:13.108Z,0.50
2019-02-23T07:37:42.392Z,0.60
2019-02-23T07:40:13.607Z,0.60
2019-02-23T07:42:44.223Z,0.70
2019-02-23T07:45:13.592Z,0.80
2019-02-23T07:47:42.864Z,0.90
2019-02-23T07:50:14.089Z,1.00
2019-02-23T07:52:43.662Z,1.00
2019-02-23T07:55:13.274Z,1.10
2019-02-23T07:57:42.887Z,1.20
2019-02-23T08:00:15.083Z,1.20
2019-02-23T08:02:44.373Z,1.30
2019-02-23T08:05:13.648Z,1.40
2019-02-23T08:07:42.928Z,1.40
2019-02-23T08:10:13.051Z,1.40
2019-02-23T08:12:43.096Z,1.40
2019-02-23T08:15:12.646Z,1.40
2019-02-23T08:17:43.004Z,1.40
2019-02-23T08:20:13.680Z,1.50
2019-02-23T08:22:43.297Z,1.50
2019-02-23T08:25:14.095Z,1.70
2019-02-23T08:27:43.741Z,1.60
2019-02-23T08:30:14.780Z,1.60
2019-02-23T08:32:44.064Z,1.60
2019-02-23T08:35:13.356Z,1.70
2019-02-23T08:37:42.899Z,1.70
2019-02-23T08:40:18.387Z,1.90
2019-02-23T08:42:47.667Z,2.00
2019-02-23T08:45:16.948Z,2.10
2019-02-23T08:47:46.241Z,2.10
2019-02-23T08:50:16.387Z,2.20
2019-02-23T08:52:49.929Z,2.20
2019-02-23T08:55:17.496Z,2.40
2019-02-23T08:57:47.117Z,2.50
2019-02-23T09:00:19.457Z,2.60
2019-02-23T09:02:48.755Z,2.70
2019-02-23T09:05:18.036Z,2.90
2019-02-23T09:07:47.384Z,3.10
2019-02-23T09:10:16.960Z,3.30
2019-02-23T09:12:46.874Z,3.40
2019-02-23T09:15:16.218Z,3.60
2019-02-23T09:17:45.531Z,4.00
2019-02-23T09:20:15.089Z,4.20
2019-02-23T09:22:44.706Z,4.40
2019-02-23T09:25:13.990Z,4.50
2019-02-23T09:27:44.159Z,4.70
2019-02-23T09:30:14.767Z,4.60
2019-02-23T09:32:44.048Z,4.80
2019-02-23T09:35:14.576Z,5.20
2019-02-23T09:37:43.859Z,4.90
2019-02-23T09:40:20.512Z,5.00
2019-02-23T09:42:50.836Z,5.20
2019-02-23T09:45:20.115Z,5.60
2019-02-23T09:47:49.400Z,5.80
2019-02-23T09:50:18.680Z,5.80
2019-02-23T09:52:47.964Z,6.00
2019-02-23T09:55:17.528Z,6.60
2019-02-23T09:57:47.144Z,6.80
2019-02-23T10:00:16.942Z,7.00
2019-02-23T10:02:46.220Z,7.10
2019-02-23T10:05:15.764Z,7.10
2019-02-23T10:07:45.043Z,7.20
2019-02-23T10:10:14.597Z,6.70
2019-02-23T10:12:43.937Z,6.50
2019-02-23T10:15:13.703Z,7.00
2019-02-23T10:17:42.984Z,7.50
2019-02-23T10:20:13.621Z,7.60
2019-02-23T10:22:42.896Z,7.40
2019-02-23T10:25:12.193Z,7.10
2019-02-23T10:27:41.758Z,7.20
2019-02-23T10:30:15.525Z,7.40
2019-02-23T10:32:44.801Z,7.40
2019-02-23T10:35:14.453Z,7.30
2019-02-23T10:37:43.731Z,7.20
2019-02-23T10:40:13.616Z,7.00
2019-02-23T10:42:42.915Z,7.10
2019-02-23T10:45:12.933Z,7.50
2019-02-23T10:47:42.460Z,7.50
2019-02-23T10:50:13.384Z,7.70
2019-02-23T10:52:42.747Z,8.10
2019-02-23T10:55:15.567Z,8.40
2019-02-23T10:57:44.908Z,8.50
2019-02-23T11:00:25.533Z,8.40
2019-02-23T11:02:54.847Z,8.40
2019-02-23T11:05:24.265Z,8.80
2019-02-23T11:07:53.860Z,8.70
2019-02-23T11:10:23.874Z,8.70
2019-02-23T11:12:54.708Z,8.80
2019-02-23T11:15:23.992Z,9.20
2019-02-23T11:17:53.416Z,9.10
2019-02-23T11:20:23.541Z,9.50
2019-02-23T11:22:52.824Z,9.90
2019-02-23T11:25:23.511Z,10.30
2019-02-23T11:27:52.792Z,10.10
2019-02-23T11:30:22.077Z,10.40
2019-02-23T11:32:51.368Z,10.80
2019-02-23T11:35:20.655Z,10.30
2019-02-23T11:37:50.036Z,10.30
2019-02-23T11:40:19.325Z,10.60
2019-02-23T11:42:48.921Z,10.70
2019-02-23T11:45:18.211Z,10.60
2019-02-23T11:47:47.489Z,10.50
2019-02-23T11:50:16.847Z,10.30
2019-02-23T11:52:46.138Z,10.30
2019-02-23T11:55:15.472Z,10.50
2019-02-23T11:57:45.031Z,10.50
2019-02-23T12:00:15.476Z,10.50
2019-02-23T12:02:52.571Z,11.00
2019-02-23T12:05:17.101Z,11.10
2019-02-23T12:07:46.384Z,11.30
2019-02-23T12:10:16.687Z,11.60
2019-02-23T12:12:45.972Z,11.70
2019-02-23T12:15:16.879Z,11.70
2019-02-23T12:17:46.163Z,11.30
2019-02-23T12:20:15.537Z,11.20
2019-02-23T12:22:45.252Z,10.90
2019-02-23T12:25:16.213Z,10.60
2019-02-23T12:27:45.736Z,10.50
2019-02-23T12:30:15.031Z,10.70
2019-02-23T12:32:44.315Z,10.70
2019-02-23T12:35:13.610Z,10.90
2019-02-23T12:37:42.923Z,10.70
2019-02-23T12:40:12.342Z,10.60
2019-02-23T12:42:41.637Z,10.70
2019-02-23T12:45:12.979Z,10.80
2019-02-23T12:47:42.259Z,11.20
2019-02-23T12:50:12.888Z,11.50
2019-02-23T12:52:42.193Z,11.50
2019-02-23T12:55:12.132Z,11.70
2019-02-23T12:57:41.516Z,11.80
2019-02-23T13:00:15.799Z,12.10
2019-02-23T13:02:46.304Z,12.20
2019-02-23T13:05:15.580Z,12.00
2019-02-23T13:07:44.876Z,12.10
2019-02-23T13:10:14.328Z,12.40
2019-02-23T13:12:46.800Z,12.60
2019-02-23T13:15:22.140Z,12.50
2019-02-23T13:18:20.061Z,12.30
2019-02-23T13:21:13.836Z,12.50
2019-02-23T13:23:46.535Z,12.70
2019-02-23T13:26:34.348Z,13.00
2019-02-23T13:29:12.428Z,13.20
2019-02-23T13:31:56.651Z,13.30
2019-02-23T13:34:35.056Z,13.30
2019-02-23T13:37:13.733Z,13.30
2019-02-23T13:40:13.537Z,13.60
2019-02-23T13:42:55.013Z,13.40
2019-02-23T13:45:45.916Z,13.40
2019-02-23T13:48:30.327Z,13.90
2019-02-23T13:51:05.024Z,14.30
2019-02-23T13:53:51.824Z,13.90
2019-02-23T13:56:33.479Z,13.90
2019-02-23T13:59:14.979Z,13.80
2019-02-23T14:01:56.092Z,13.90
2019-02-23T14:04:40.212Z,14.10
2019-02-23T14:07:22.002Z,14.60
2019-02-23T14:10:14.144Z,14.90
2019-02-23T14:12:52.360Z,15.40
2019-02-23T14:15:51.466Z,15.60
2019-02-23T14:18:38.427Z,15.00
2019-02-23T14:21:45.553Z,16.00
2019-02-23T14:24:36.068Z,17.30
2019-02-23T14:27:28.760Z,17.60
2019-02-23T14:30:28.579Z,17.60
2019-02-23T14:33:03.487Z,17.00
2019-02-23T14:35:42.215Z,17.00
2019-02-23T14:38:35.665Z,17.30
2019-02-23T14:41:24.125Z,17.50
2019-02-23T14:44:11.117Z,17.70
2019-02-23T14:47:00.047Z,17.50
2019-02-23T14:49:49.861Z,17.60
2019-02-23T14:52:27.034Z,17.40
2019-02-23T14:55:17.258Z,16.20
2019-02-23T14:57:56.036Z,16.60
2019-02-23T15:00:39.718Z,16.50
2019-02-23T15:03:24.176Z,17.10
2019-02-23T15:06:14.716Z,16.30
2019-02-23T15:09:11.535Z,15.40
2019-02-23T15:11:49.536Z,15.50
2019-02-23T15:14:28.978Z,16.50
2019-02-23T15:17:15.311Z,17.20
2019-02-23T15:20:02.551Z,17.40
2019-02-23T15:22:50.007Z,17.00
2019-02-23T15:25:51.636Z,16.70
2019-02-23T15:28:50.217Z,16.60
2019-02-23T15:31:40.324Z,17.30
2019-02-23T15:34:39.675Z,17.80
2019-02-23T15:37:21.107Z,17.90
2019-02-23T15:40:17.587Z,18.40
2019-02-23T15:43:08.143Z,19.40
2019-02-23T15:46:03.378Z,18.70
2019-02-23T15:48:53.674Z,18.30
2019-02-23T15:51:23.270Z,17.40
2019-02-23T15:53:52.669Z,16.40
2019-02-23T15:56:22.132Z,15.80
2019-02-23T15:58:51.472Z,16.10
2019-02-23T16:01:20.757Z,16.20
2019-02-23T16:03:50.040Z,16.70
2019-02-23T16:06:21.576Z,16.90
2019-02-23T16:08:50.859Z,17.00
2019-02-23T16:11:20.136Z,17.40
2019-02-23T16:13:50.724Z,16.90
2019-02-23T16:16:20.009Z,16.50
2019-02-23T16:18:49.655Z,16.00
2019-02-23T16:21:19.307Z,15.20
2019-02-23T16:23:49.139Z,14.60
2019-02-23T16:26:18.631Z,13.50
2019-02-23T16:28:48.987Z,12.90
2019-02-23T16:31:18.383Z,12.50
2019-02-23T16:33:47.677Z,12.10
2019-02-23T16:36:17.388Z,11.70
2019-02-23T16:38:46.668Z,11.00
2019-02-23T16:41:16.195Z,10.20
2019-02-23T16:43:45.976Z,9.60
2019-02-23T16:46:15.520Z,9.20
2019-02-23T16:48:44.836Z,8.90
2019-02-23T16:51:14.437Z,8.70
2019-02-23T16:53:44.108Z,8.60
2019-02-23T16:56:14.521Z,8.50
2019-02-23T16:58:43.879Z,8.40
2019-02-23T17:01:13.200Z,8.30
2019-02-23T17:03:43.247Z,8.20
2019-02-23T17:06:12.523Z,8.20
2019-02-23T17:08:41.803Z,8.00
2019-02-23T17:11:11.088Z,7.90
2019-02-23T17:13:40.634Z,7.90
2019-02-23T17:16:10.246Z,7.70
2019-02-23T17:18:39.523Z,7.60
2019-02-23T17:21:10.321Z,7.60
2019-02-23T17:23:40.196Z,7.60
2019-02-23T17:26:09.815Z,7.50
2019-02-23T17:28:39.420Z,7.40
2019-02-23T17:31:09.033Z,7.30
2019-02-23T17:33:38.313Z,7.30
2019-02-23T17:36:08.252Z,7.20
2019-02-23T17:38:37.864Z,7.20
2019-02-23T17:41:07.137Z,7.10
2019-02-23T17:43:40.022Z,7.00
2019-02-23T17:46:08.029Z,6.90
2019-02-23T17:48:37.309Z,6.80
2019-02-23T17:51:06.605Z,6.60
2019-02-23T17:53:36.151Z,6.50
2019-02-23T17:56:12.106Z,6.40
2019-02-23T17:58:36.632Z,6.40
2019-02-23T18:01:05.917Z,6.20
2019-02-23T18:03:35.199Z,6.00
2019-02-23T18:06:04.479Z,5.70
2019-02-23T18:08:33.804Z,5.60
2019-02-23T18:11:03.083Z,5.50
2019-02-23T18:13:32.359Z,5.40
2019-02-23T18:16:03.054Z,5.30
2019-02-23T18:18:32.327Z,5.20
2019-02-23T18:21:01.623Z,5.10
2019-02-23T18:23:31.686Z,5.00
2019-02-23T18:26:01.299Z,5.10
2019-02-23T18:28:30.648Z,5.00
2019-02-23T18:30:59.927Z,5.10
2019-02-23T18:33:30.131Z,4.90
2019-02-23T18:35:59.410Z,4.80
2019-02-23T18:38:28.693Z,4.70
2019-02-23T18:40:58.344Z,4.70
2019-02-23T18:43:27.692Z,4.60
2019-02-23T18:45:57.264Z,4.50
2019-02-23T18:48:26.532Z,4.40
2019-02-23T18:50:55.819Z,4.30
2019-02-23T18:53:25.094Z,4.30
2019-02-23T18:55:54.687Z,4.20
2019-02-23T18:58:23.992Z,4.10
2019-02-23T19:00:53.267Z,4.10
2019-02-23T19:03:22.548Z,4.10
2019-02-23T19:05:52.805Z,4.00
2019-02-23T19:08:22.088Z,4.00
2019-02-23T19:10:51.367Z,3.90
2019-02-23T19:13:20.724Z,3.90
2019-02-23T19:15:50.008Z,3.80
2019-02-23T19:18:19.543Z,3.70
2019-02-23T19:20:48.857Z,3.70
2019-02-23T19:23:18.135Z,3.70
2019-02-23T19:25:48.692Z,3.60
2019-02-23T19:28:17.977Z,3.60
2019-02-23T19:30:47.260Z,3.60
2019-02-23T19:33:16.539Z,3.50
2019-02-23T19:35:46.792Z,3.50
2019-02-23T19:38:16.100Z,3.50
2019-02-23T19:40:45.380Z,3.50
2019-02-23T19:43:14.664Z,3.50
2019-02-23T19:45:44.280Z,3.40
2019-02-23T19:48:13.560Z,3.20
2019-02-23T19:50:46.383Z,3.20
2019-02-23T19:53:16.656Z,3.30
2019-02-23T19:55:45.931Z,3.30
2019-02-23T19:58:15.207Z,3.30
2019-02-23T20:00:44.508Z,3.30
2019-02-23T20:03:14.079Z,3.30
2019-02-23T20:05:43.377Z,3.40
2019-02-23T20:08:13.004Z,3.30
2019-02-23T20:10:43.013Z,3.30
2019-02-23T20:13:12.626Z,3.30
2019-02-23T20:15:41.915Z,3.40
2019-02-23T20:18:11.201Z,3.40
2019-02-23T20:20:40.565Z,3.50
2019-02-23T20:23:09.935Z,3.60
2019-02-23T20:25:39.232Z,3.70
2019-02-23T20:28:10.334Z,3.80
2019-02-23T20:30:39.916Z,4.00
2019-02-23T20:33:09.191Z,4.10
2019-02-23T20:35:38.471Z,4.10
2019-02-23T20:38:09.557Z,4.10
2019-02-23T20:40:38.836Z,4.10
2019-02-23T20:43:09.187Z,4.10
2019-02-23T20:45:38.794Z,4.00
2019-02-23T20:48:08.147Z,4.00
2019-02-23T20:50:37.820Z,3.90
2019-02-23T20:53:07.432Z,3.80
2019-02-23T20:55:36.717Z,3.60
2019-02-23T20:58:05.992Z,3.60
2019-02-23T21:00:35.272Z,3.50
2019-02-23T21:03:04.551Z,3.40
2019-02-23T21:05:33.831Z,3.40
2019-02-23T21:08:03.461Z,3.30
2019-02-23T21:10:32.740Z,3.20
2019-02-23T21:13:03.384Z,3.10
2019-02-23T21:15:33.927Z,3.00
2019-02-23T21:18:03.212Z,3.00
2019-02-23T21:20:32.852Z,2.90
2019-02-23T21:23:02.240Z,2.90
2019-02-23T21:25:31.708Z,2.90
2019-02-23T21:28:00.988Z,2.90
2019-02-23T21:30:31.127Z,2.90
2019-02-23T21:33:00.399Z,2.90
2019-02-23T21:35:29.675Z,2.90
2019-02-23T21:37:59.306Z,2.90
2019-02-23T21:40:28.918Z,2.90
2019-02-23T21:42:58.191Z,2.90
2019-02-23T21:45:27.723Z,2.70
2019-02-23T21:47:56.999Z,2.70
2019-02-23T21:50:27.428Z,2.70
2019-02-23T21:52:56.977Z,2.70
2019-02-23T21:55:26.317Z,2.70
2019-02-23T21:57:55.601Z,2.70
2019-02-23T22:00:25.195Z,2.70
2019-02-23T22:02:54.544Z,2.70
2019-02-23T22:05:24.104Z,2.70
2019-02-23T22:07:53.716Z,2.70
2019-02-23T22:10:22.994Z,2.70
2019-02-23T22:12:53.288Z,2.60
2019-02-23T22:15:22.587Z,2.60
2019-02-23T22:17:52.276Z,2.60
2019-02-23T22:20:21.812Z,2.50
2019-02-23T22:22:51.146Z,2.40
2019-02-23T22:25:20.460Z,2.30
2019-02-23T22:27:49.741Z,2.30
2019-02-23T22:30:19.029Z,2.20
2019-02-23T22:32:49.964Z,2.20
2019-02-23T22:35:19.248Z,2.20
2019-02-23T22:37:48.845Z,2.20
2019-02-23T22:40:18.471Z,2.10
2019-02-23T22:42:47.788Z,2.10
2019-02-23T22:45:17.073Z,1.90
2019-02-23T22:47:46.352Z,1.70
2019-02-23T22:50:15.631Z,1.50
2019-02-23T22:52:44.908Z,1.40
2019-02-23T22:55:14.216Z,1.30
2019-02-23T22:57:43.796Z,1.30
2019-02-23T23:00:15.612Z,1.30
2019-02-23T23:02:46.796Z,1.20
2019-02-23T23:05:16.404Z,1.10
2019-02-23T23:07:45.690Z,1.10
2019-02-23T23:10:14.972Z,1.10
2019-02-23T23:12:44.536Z,1.10
2019-02-23T23:15:14.067Z,1.00
2019-02-23T23:17:43.641Z,1.00
2019-02-23T23:20:13.489Z,1.00
2019-02-23T23:22:42.849Z,1.00
2019-02-23T23:25:12.373Z,1.00
2019-02-23T23:27:49.101Z,1.00
2019-02-23T23:30:12.968Z,1.00
2019-02-23T23:32:42.247Z,1.00
2019-02-23T23:35:13.108Z,1.00
2019-02-23T23:37:42.393Z,1.00
2019-02-23T23:40:12.604Z,1.00
2019-02-23T23:42:42.214Z,1.00
2019-02-23T23:45:11.505Z,1.00
2019-02-23T23:47:41.124Z,1.00
2019-02-23T23:50:10.405Z,0.90
2019-02-23T23:52:39.688Z,0.80
2019-02-23T23:55:09.246Z,0.80
2019-02-23T23:57:39.396Z,0.70
